Latest Weather Observations for Central Arnhem Plateau

IDD60801

Issued at 9:01 am CST Sunday 24 June 2018 (issued every 10 minutes, with the page automatically refreshed every 10 minutes)

About weather observations | Map of weather stations | Latest weather observations for NT | Other Formats
Station Details ID: 014909 Name: CENTRAL ARNHEM PLATEAU Lat: -13.33 Lon: 133.09 Height: 416.0 m
Data from the previous 72 hours. | See also: Recent months at Central Arnhem Plateau
Date/Time
CST
Temp
°C
App
Temp
°C
Dew
Point
°C
Rel
Hum
%
Delta-T
°C
Wind Press
QNH
hPa
Press
MSL
hPa
Rain since
9am
mm
Dir  Spd
km/h
Gust
km/h
Spd
kts
Gust
kts
24/09:00am 19.4 16.8 13.8 70 3.3 ESE 20 28 11 15 1018.2 1016.3 0.0
24/08:30am 18.4 16.0 13.7 74 2.7 ESE 19 26 10 14 1017.9 1016.0 0.0
24/08:00am 17.3 15.5 13.2 77 2.3 ESE 15 20 8 11 1017.6 1015.6 0.0
24/07:30am 16.6 15.0 12.9 79 2.1 ESE 13 17 7 9 1017.4 1015.4 0.0
24/07:00am 16.6 14.7 13.1 80 2.0 ESE 15 19 8 10 1017.1 1015.1 0.0
24/06:30am 16.5 14.5 12.8 79 2.1 ESE 15 17 8 9 1016.6 1014.6 0.0
24/06:00am 16.8 15.2 12.7 77 2.3 ESE 13 17 7 9 1016.3 1014.4 0.0
24/05:30am 17.4 15.5 12.9 75 2.6 ESE 15 19 8 10 1016.5 1014.5 0.0
24/05:00am 16.9 15.4 13.0 78 2.2 ESE 13 15 7 8 1016.5 1014.5 0.0
24/04:30am 16.4 15.0 12.2 76 2.3 ESE 11 13 6 7 1016.7 1014.7 0.0
24/04:00am 16.0 14.5 10.7 71 2.9 ESE 9 11 5 6 1016.8 1014.8 0.0
24/03:30am 16.1 14.1 10.0 67 3.3 ESE 11 11 6 6 1017.0 1015.0 0.0
24/03:00am 16.1 14.2 9.1 63 3.7 ESE 9 11 5 6 1017.1 1015.1 0.0
24/02:30am 16.7 14.7 8.7 59 4.2 ESE 9 13 5 7 1017.4 1015.4 0.0
24/02:00am 17.0 14.5 8.2 56 4.6 ESE 11 13 6 7 1017.7 1015.8 0.0
24/01:30am 17.2 14.9 7.5 53 5.0 ESE 9 11 5 6 1017.9 1016.0 0.0
24/01:00am 17.6 15.3 7.4 51 5.2 SE 9 13 5 7 1018.2 1016.3 0.0
24/12:30am 18.0 15.7 7.4 50 5.5 SE 9 11 5 6 1018.5 1016.6 0.0
24/12:00am 18.2 15.9 7.3 49 5.6 SE 9 13 5 7 1018.6 1016.7 0.0
 
Date/Time
CST
Temp
°C
App
Temp
°C
Dew
Point
°C
Rel
Hum
%
Delta-T
°C
Wind Press
QNH
hPa
Press
MSL
hPa
Rain since
9am
mm
Dir  Spd
km/h
Gust
km/h
Spd
kts
Gust
kts
23/11:30pm 17.6 15.3 7.6 52 5.1 ESE 9 11 5 6 1018.6 1016.7 0.0
23/11:00pm 19.5 16.2 6.6 43 6.6 ESE 13 19 7 10 1018.8 1016.9 0.0
23/10:30pm 19.9 16.5 5.9 40 7.1 SE 13 17 7 9 1019.0 1017.0 0.0
23/10:00pm 17.9 16.1 7.0 49 5.6 SE 6 7 3 4 1018.7 1016.8 0.0
23/09:30pm 18.9 17.0 7.4 47 5.9 SE 7 7 4 4 1018.6 1016.7 0.0
23/09:00pm 18.8 16.9 6.6 45 6.2 SE 6 7 3 4 1018.5 1016.6 0.0
23/08:30pm 21.3 19.2 6.8 39 7.5 SE 7 9 4 5 1018.2 1016.3 0.0
23/08:00pm 21.4 19.3 6.5 38 7.7 SSE 7 13 4 7 1017.9 1016.0 0.0
23/07:30pm 21.9 19.6 5.8 35 8.2 SE 7 9 4 5 1017.4 1015.4 0.0
23/07:00pm 22.4 20.1 5.8 34 8.5 SE 7 9 4 5 1017.2 1015.2 0.0
23/06:30pm 23.3 20.6 5.7 32 9.1 ESE 9 13 5 7 1016.8 1014.8 0.0
23/06:00pm 24.5 21.2 4.8 28 10.1 ESE 11 15 6 8 1016.3 1014.4 0.0
23/05:30pm 25.6 21.9 4.7 26 10.7 ESE 13 17 7 9 1015.9 1014.0 0.0
23/05:00pm 26.5 22.8 4.3 24 11.4 ESE 13 17 7 9 1015.5 1013.5 0.0
23/04:30pm 26.9 22.1 4.6 24 11.5 SE 19 26 10 14 1015.3 1013.3 0.0
23/04:00pm 27.2 22.6 3.7 22 12.0 SE 17 22 9 12 1015.1 1013.1 0.0
23/03:30pm 27.2 23.0 3.7 22 12.0 SE 15 24 8 13 1015.1 1013.1 0.0
23/03:00pm 27.0 21.8 3.5 22 11.9 SE 20 28 11 15 1015.1 1013.1 0.0
23/02:30pm 26.7 21.4 3.2 22 11.8 ESE 20 30 11 16 1015.3 1013.3 0.0
23/02:00pm 26.9 22.0 4.0 23 11.7 ESE 19 26 10 14 1015.7 1013.8 0.0
23/01:30pm 26.4 21.2 3.6 23 11.5 ESE 20 30 11 16 1016.0 1014.1 0.0
23/01:00pm 26.1 20.1 3.4 23 11.4 SE 24 33 13 18 1016.5 1014.5 0.0
23/12:30pm 25.9 20.0 3.8 24 11.2 ESE 24 32 13 17 1017.0 1015.0 0.0
23/12:00pm 25.4 19.6 4.5 26 10.7 SE 24 33 13 18 1017.3 1015.3 0.0
23/11:30am 24.6 18.5 4.9 28 10.1 ESE 26 35 14 19 1017.7 1015.8 0.0
23/11:00am 23.4 17.4 5.3 31 9.3 ESE 26 35 14 19 1018.0 1016.1 0.0
23/10:30am 22.4 17.7 7.8 39 7.8 SE 22 35 12 19 1018.0 1016.1 0.0
23/10:00am 20.9 16.7 9.8 49 6.1 ESE 22 35 12 19 1018.1 1016.2 0.0
23/09:30am 20.3 16.9 10.7 54 5.3 ESE 19 26 10 14 1018.1 1016.2 0.0
23/09:00am 18.4 15.5 11.0 62 4.1 ESE 17 24 9 13 1018.0 1016.1 0.0
23/08:30am 17.1 14.0 11.6 70 3.0 ESE 19 28 10 15 1017.9 1016.0 0.0
23/08:00am 15.6 12.3 11.0 74 2.5 SE 19 24 10 13 1017.6 1015.6 0.0
23/07:30am 14.7 12.4 10.5 76 2.3 SE 13 15 7 8 1017.5 1015.5 0.0
23/07:00am 14.0 11.5 9.6 75 2.3 SE 13 15 7 8 1017.2 1015.2 0.0
23/06:30am 13.9 11.5 8.7 71 2.7 SE 11 15 6 8 1017.1 1015.1 0.0
23/06:00am 13.9 10.9 7.9 67 3.0 ESE 13 15 7 8 1016.9 1014.9 0.0
23/05:30am 14.4 11.5 8.1 66 3.2 ESE 13 15 7 8 1016.8 1014.8 0.0
23/05:00am 14.6 11.1 7.2 61 3.7 ESE 15 19 8 10 1016.8 1014.8 0.0
23/04:30am 14.8 11.1 6.4 57 4.1 ESE 15 19 8 10 1016.8 1014.8 0.0
23/04:00am 15.1 11.6 5.6 53 4.6 ESE 13 17 7 9 1016.7 1014.7 0.0
23/03:30am 15.6 12.4 4.9 49 5.2 ESE 11 15 6 8 1016.7 1014.7 0.0
23/03:00am 15.8 12.1 4.2 46 5.5 ESE 13 15 7 8 1016.8 1014.8 0.0
23/02:30am 16.1 12.4 4.2 45 5.7 ESE 13 15 7 8 1016.9 1014.9 0.0
23/02:00am 16.2 12.7 3.3 42 6.0 ESE 11 15 6 8 1017.1 1015.1 0.0
23/01:30am 16.4 12.8 2.8 40 6.3 ESE 11 13 6 7 1017.5 1015.5 0.0
23/01:00am 15.9 12.6 2.7 41 6.1 E 9 11 5 6 1017.8 1015.9 0.0
23/12:30am 17.0 13.3 2.6 38 6.7 ESE 11 13 6 7 1017.8 1015.9 0.0
23/12:00am 17.2 13.9 2.4 37 6.8 E 9 13 5 7 1018.0 1016.1 0.0
 
Date/Time
CST
Temp
°C
App
Temp
°C
Dew
Point
°C
Rel
Hum
%
Delta-T
°C
Wind Press
QNH
hPa
Press
MSL
hPa
Rain since
9am
mm
Dir  Spd
km/h
Gust
km/h
Spd
kts
Gust
kts
22/11:30pm 18.3 14.2 2.2 34 7.5 ESE 13 17 7 9 1018.2 1016.3 0.0
22/11:00pm 19.1 15.0 2.0 32 8.0 ESE 13 19 7 10 1018.2 1016.3 0.0
22/10:30pm 20.2 14.9 1.6 29 8.7 SE 19 24 10 13 1018.2 1016.3 0.0
22/10:00pm 19.9 16.1 1.8 30 8.5 SE 11 13 6 7 1018.3 1016.4 0.0
22/09:30pm 18.8 16.2 3.0 35 7.5 SE 6 7 3 4 1018.3 1016.4 0.0
22/09:00pm 20.7 17.9 3.4 32 8.4 SE 7 9 4 5 1018.1 1016.2 0.0
22/08:30pm 21.3 18.1 3.0 30 8.8 SE 9 11 5 6 1017.9 1016.0 0.0
22/08:00pm 21.9 18.7 3.1 29 9.2 ESE 9 11 5 6 1017.5 1015.5 0.0
22/07:30pm 22.7 19.2 3.3 28 9.5 ESE 11 15 6 8 1017.1 1015.1 0.0
22/07:00pm 23.3 20.0 2.7 26 10.1 ESE 9 11 5 6 1016.8 1014.8 0.0
22/06:30pm 24.3 21.0 2.5 24 10.7 ESE 9 13 5 7 1016.3 1014.4 0.0
22/06:00pm 25.7 21.2 2.4 22 11.5 ESE 15 20 8 11 1016.1 1014.2 0.0
22/05:30pm 26.9 22.5 2.7 21 12.1 ESE 15 20 8 11 1015.7 1013.8 0.0
22/05:00pm 27.4 22.6 2.5 20 12.4 E 17 24 9 13 1015.5 1013.5 0.0
22/04:30pm 27.4 22.1 1.8 19 12.6 ESE 19 24 10 13 1015.5 1013.5 0.0
22/04:00pm 28.0 24.2 3.7 21 12.5 ESE 13 20 7 11 1015.5 1013.5 0.0
22/03:30pm 27.7 23.4 3.4 21 12.4 SE 15 24 8 13 1015.5 1013.5 0.0
22/03:00pm 28.2 24.0 3.8 21 12.5 SE 15 28 8 15 1015.6 1013.7 0.0
22/02:30pm 27.2 23.0 3.7 22 12.0 ESE 15 24 8 13 1016.0 1014.1 0.0
22/02:00pm 26.8 21.7 3.3 22 11.9 SE 19 26 10 14 1016.5 1014.5 0.0
22/01:30pm 26.7 21.6 3.9 23 11.6 ESE 20 28 11 15 1016.8 1014.8 0.0
22/01:00pm 26.3 21.4 4.1 24 11.3 ESE 19 28 10 15 1017.2 1015.2 0.0
22/12:30pm 26.3 21.5 4.7 25 11.1 ESE 19 32 10 17 1017.6 1015.6 0.0
22/12:00pm 25.6 20.2 4.7 26 10.7 ESE 22 33 12 18 1018.2 1016.3 0.0
22/11:30am 25.0 18.9 4.7 27 10.4 ESE 26 35 14 19 1018.7 1016.8 0.0
22/11:00am 23.7 17.2 4.6 29 9.7 ESE 28 39 15 21 1018.8 1016.9 0.0
22/10:30am 22.6 16.8 4.6 31 9.0 ESE 24 33 13 18 1018.8 1016.9 0.0
22/10:00am 22.2 17.2 6.4 36 8.2 ESE 22 32 12 17 1019.0 1017.0 0.0
22/09:30am 20.5 16.2 9.4 49 6.0 ESE 22 32 12 17 1019.2 1017.2 0.0
22/09:00am 18.5 14.4 10.1 58 4.6 ESE 22 30 12 16 1019.1 1017.1 -
22/08:30am 17.1 13.4 10.0 63 3.8 ESE 20 26 11 14 1018.7 1016.8 -
22/08:00am 16.3 13.0 9.7 65 3.5 ESE 17 22 9 12 1018.4 1016.5 -
22/07:30am 14.6 11.9 10.2 75 2.3 ESE 15 20 8 11 1018.1 1016.2 -
22/07:00am 14.2 11.1 10.4 78 2.0 ESE 17 19 9 10 1017.9 1016.0 -
22/06:30am 14.2 11.7 11.2 82 1.6 ESE 15 19 8 10 1017.4 1015.4 -
22/06:00am 14.4 12.3 11.2 81 1.7 ESE 13 15 7 8 1017.4 1015.4 -
22/05:30am 14.6 12.6 11.4 81 1.7 ESE 13 17 7 9 1017.3 1015.3 -
22/05:00am 15.0 13.0 11.6 80 1.9 SE 13 17 7 9 1017.2 1015.2 -
22/04:30am 15.1 13.1 11.5 79 2.0 SE 13 15 7 8 1017.2 1015.2 -
22/04:00am 15.2 13.6 11.4 78 2.1 SE 11 13 6 7 1017.3 1015.3 -
22/03:30am 15.3 13.6 11.1 76 2.3 ESE 11 15 6 8 1017.4 1015.4 -
22/03:00am 15.7 13.5 10.9 73 2.6 ESE 13 17 7 9 1017.6 1015.6 0.0
22/02:30am 15.6 13.2 10.2 70 2.9 ESE 13 15 7 8 1017.8 1015.9 -
22/02:00am 16.1 13.5 9.5 65 3.5 ESE 13 15 7 8 1017.9 1016.0 -
22/01:30am 16.6 13.8 8.6 59 4.2 ESE 13 17 7 9 1018.0 1016.1 -
22/01:00am 16.9 13.7 7.0 52 5.0 SE 13 15 7 8 1018.3 1016.4 -
22/12:30am 17.4 14.0 6.0 47 5.7 ESE 13 17 7 9 1018.4 1016.5 -
22/12:00am 18.1 14.6 5.3 43 6.3 ESE 13 17 7 9 1018.4 1016.5 -
 
Date/Time
CST
Temp
°C
App
Temp
°C
Dew
Point
°C
Rel
Hum
%
Delta-T
°C
Wind Press
QNH
hPa
Press
MSL
hPa
Rain since
9am
mm
Dir  Spd
km/h
Gust
km/h
Spd
kts
Gust
kts
21/11:30pm 18.6 14.9 4.4 39 6.9 ESE 13 17 7 9 1018.4 1016.5 -
21/11:00pm 19.1 15.3 3.7 36 7.4 ESE 13 17 7 9 1018.6 1016.7 -
21/10:30pm 19.2 15.4 3.8 36 7.4 ESE 13 15 7 8 1018.8 1016.9 -
21/10:00pm 19.0 15.9 3.6 36 7.4 ESE 9 11 5 6 1018.8 1016.9 -
21/09:30pm 20.3 17.1 3.1 32 8.3 SE 9 11 5 6 1018.7 1016.8 -
21/09:00pm 20.7 17.6 3.4 32 8.4 SE 9 11 5 6 1018.4 1016.5 -
21/08:30pm 21.2 18.4 3.4 31 8.7 SE 7 9 4 5 1018.3 1016.4 -
21/08:00pm 21.9 18.8 3.6 30 9.0 SE 9 11 5 6 1018.0 1016.1 -
21/07:30pm 22.9 19.9 3.9 29 9.4 SE 9 11 5 6 1017.7 1015.8 -
21/07:00pm 23.6 20.9 3.5 27 10.0 SE 7 9 4 5 1017.4 1015.4 -
21/06:30pm 24.9 21.3 3.0 24 10.9 SE 11 17 6 9 1017.1 1015.1 -
21/06:00pm 26.2 22.2 2.8 22 11.7 ESE 13 19 7 10 1016.8 1014.8 -
21/05:30pm 27.2 22.7 2.3 20 12.4 ESE 15 20 8 11 1016.5 1014.5 -
21/04:30pm 27.8 22.5 2.1 19 12.8 ESE 19 26 10 14 1015.8 1013.9 0.0
21/04:00pm 28.0 22.6 1.5 18 13.1 ESE 19 24 10 13 1015.6 1013.7 0.0
21/03:30pm 28.3 22.8 0.9 17 13.4 ESE 19 28 10 15 1015.5 1013.5 0.0
21/03:00pm 28.2 22.4 0.0 16 13.6 SE 20 30 11 16 1015.7 1013.8 0.0
21/02:30pm 28.2 22.4 0.0 16 13.6 ESE 20 32 11 17 1015.9 1014.0 0.0
21/02:00pm 28.4 22.5 1.8 18 13.2 ESE 22 30 12 16 1016.2 1014.3 0.0
21/01:30pm 27.5 21.8 0.3 17 13.1 ESE 20 32 11 17 1016.6 1014.6 0.0
21/01:00pm 27.6 21.9 0.4 17 13.1 ESE 20 28 11 15 1017.0 1015.0 0.0
21/12:30pm 27.2 20.9 -0.8 16 13.2 ESE 22 32 12 17 1017.3 1015.3 0.0
21/12:00pm 26.7 19.5 -2.1 15 13.2 ESE 26 33 14 18 1017.6 1015.6 0.0
21/11:30am 26.7 19.9 -2.1 15 13.2 E 24 35 13 19 1017.9 1016.0 0.0
21/11:00am 25.1 18.0 -1.6 17 12.2 ESE 26 39 14 21 1018.2 1016.3 0.0
21/10:30am 24.6 16.7 -1.3 18 11.8 ESE 30 43 16 23 1018.5 1016.6 0.0
21/10:00am 23.9 17.4 0.3 21 11.1 ESE 24 35 13 19 1018.7 1016.8 0.0
21/09:30am 22.1 15.6 0.6 24 10.0 SE 24 32 13 17 1018.8 1016.9 0.0

Other Formats:

Comma delimited format used in spreadsheet applications
http://www.bom.gov.au/fwo/IDD60801/IDD60801.94141.axf

JavaScript Object Notation format (JSON) in row-major order
http://www.bom.gov.au/fwo/IDD60801/IDD60801.94141.json